Time,TemperatureF,DewpointF,PressureIn,WindDirection,WindDirectionDegrees,WindSpeedMPH,WindSpeedGustMPH,Humidity,HourlyPrecipIn,Conditions,Clouds,dailyrainin,SoftwareType,DateUTC
2013-02-13 00:03:00,65.6,55.6,30.12,East,83,7.0,7.0,70,0.00,,,0.00,VWS V14.01,2013-02-13 10:03:00,
2013-02-13 00:08:00,65.6,55.6,30.12,ENE,72,4.0,4.0,70,0.00,,,0.00,VWS V14.01,2013-02-13 10:08:00,
2013-02-13 00:13:00,65.7,54.9,30.12,East,80,8.0,8.0,68,0.00,,,0.00,VWS V14.01,2013-02-13 10:13:00,
2013-02-13 00:18:00,65.9,55.0,30.12,ENE,63,4.0,5.0,68,0.00,,,0.00,VWS V14.01,2013-02-13 10:18:00,
2013-02-13 00:23:00,65.9,55.0,30.12,ENE,58,6.0,8.0,68,0.00,,,0.00,VWS V14.01,2013-02-13 10:23:00,
2013-02-13 00:29:00,66.0,55.2,30.12,East,80,6.0,6.0,68,0.00,,,0.00,VWS V14.01,2013-02-13 10:29:00,
2013-02-13 00:34:00,66.0,55.2,30.12,NE,36,7.0,10.0,68,0.00,,,0.00,VWS V14.01,2013-02-13 10:34:00,
2013-02-13 00:39:00,66.0,55.2,30.12,NE,54,5.0,6.0,68,0.00,,,0.00,VWS V14.01,2013-02-13 10:39:00,
2013-02-13 00:44:00,66.1,55.2,30.12,ENE,67,9.0,9.0,68,0.00,,,0.00,VWS V14.01,2013-02-13 10:44:00,
2013-02-13 00:49:00,65.9,55.5,30.12,ENE,60,4.0,5.0,69,0.00,,,0.00,VWS V14.01,2013-02-13 10:49:00,
2013-02-13 00:54:00,65.9,55.8,30.12,ENE,71,5.0,5.0,70,0.00,,,0.00,VWS V14.01,2013-02-13 10:54:00,
2013-02-13 00:59:00,65.8,56.5,30.12,ENE,61,4.0,4.0,72,0.00,,,0.00,VWS V14.01,2013-02-13 10:59:00,
2013-02-13 01:04:00,65.8,56.5,30.11,ENE,70,10.0,10.0,72,0.00,,,0.00,VWS V14.01,2013-02-13 11:04:00,
2013-02-13 01:09:00,65.8,56.5,30.11,East,85,9.0,9.0,72,0.00,,,0.00,VWS V14.01,2013-02-13 11:09:00,
2013-02-13 01:14:00,65.9,55.8,30.11,ENE,76,6.0,8.0,70,0.00,,,0.00,VWS V14.01,2013-02-13 11:14:00,
2013-02-13 01:20:00,65.9,55.5,30.11,East,96,8.0,13.0,69,0.00,,,0.00,VWS V14.01,2013-02-13 11:20:00,
2013-02-13 01:25:00,65.9,55.5,30.11,East,89,6.0,6.0,69,0.00,,,0.00,VWS V14.01,2013-02-13 11:25:00,
2013-02-13 01:30:00,65.8,55.4,30.11,East,85,11.0,16.0,69,0.00,,,0.00,VWS V14.01,2013-02-13 11:30:00,
2013-02-13 01:35:00,65.8,55.0,30.10,East,82,12.0,12.0,68,0.00,,,0.00,VWS V14.01,2013-02-13 11:35:00,
2013-02-13 01:40:00,65.8,54.5,30.10,ENE,62,9.0,9.0,67,0.00,,,0.00,VWS V14.01,2013-02-13 11:40:00,
2013-02-13 01:45:00,65.9,54.2,30.10,NE,55,7.0,10.0,66,0.00,,,0.00,VWS V14.01,2013-02-13 11:45:00,
2013-02-13 01:50:00,65.9,54.2,30.10,ENE,62,8.0,8.0,66,0.00,,,0.00,VWS V14.01,2013-02-13 11:50:00,
2013-02-13 01:55:00,65.9,54.2,30.10,NE,55,4.0,6.0,66,0.00,,,0.00,VWS V14.01,2013-02-13 11:55:00,
2013-02-13 02:00:00,65.8,54.1,30.10,ENE,71,8.0,11.0,66,0.00,,,0.00,VWS V14.01,2013-02-13 12:00:00,
2013-02-13 02:05:00,65.8,54.1,30.10,NE,49,8.0,8.0,66,0.00,,,0.00,VWS V14.01,2013-02-13 12:05:00,
2013-02-13 02:10:00,65.8,54.1,30.09,ENE,61,8.0,10.0,66,0.00,,,0.00,VWS V14.01,2013-02-13 12:10:00,
2013-02-13 02:16:00,65.8,54.1,30.09,NE,36,4.0,6.0,66,0.00,,,0.00,VWS V14.01,2013-02-13 12:16:00,
2013-02-13 02:21:00,65.8,54.1,30.09,NNE,32,4.0,6.0,66,0.00,,,0.00,VWS V14.01,2013-02-13 12:21:00,
2013-02-13 02:26:00,65.8,54.5,30.09,NE,42,4.0,4.0,67,0.00,,,0.00,VWS V14.01,2013-02-13 12:26:00,
2013-02-13 02:31:00,65.8,54.1,30.09,NE,55,6.0,6.0,66,0.00,,,0.00,VWS V14.01,2013-02-13 12:31:00,
2013-02-13 02:36:00,65.9,54.2,30.08,NE,42,5.0,6.0,66,0.00,,,0.00,VWS V14.01,2013-02-13 12:36:00,
2013-02-13 02:41:00,65.9,54.2,30.08,NNE,22,6.0,6.0,66,0.00,,,0.00,VWS V14.01,2013-02-13 12:41:00,
2013-02-13 02:46:00,66.0,54.3,30.08,NNE,33,6.0,6.0,66,0.00,,,0.00,VWS V14.01,2013-02-13 12:46:00,
2013-02-13 02:51:00,66.0,53.9,30.08,NNE,33,4.0,5.0,65,0.00,,,0.00,VWS V14.01,2013-02-13 12:51:00,
2013-02-13 02:56:00,66.0,53.9,30.07,NE,38,5.0,6.0,65,0.00,,,0.00,VWS V14.01,2013-02-13 12:56:00,
2013-02-13 03:01:00,66.1,54.4,30.07,ENE,78,2.0,4.0,66,0.00,,,0.00,VWS V14.01,2013-02-13 13:01:00,
2013-02-13 03:06:00,65.7,54.9,30.07,NE,38,5.0,6.0,68,0.00,,,0.00,VWS V14.01,2013-02-13 13:06:00,
2013-02-13 03:12:00,65.7,55.3,30.07,NNE,31,9.0,9.0,69,0.00,,,0.00,VWS V14.01,2013-02-13 13:12:00,
2013-02-13 03:17:00,65.7,55.7,30.07,East,96,6.0,6.0,70,0.00,,,0.00,VWS V14.01,2013-02-13 13:17:00,
2013-02-13 03:22:00,65.7,56.4,30.07,East,90,4.0,4.0,72,0.00,,,0.00,VWS V14.01,2013-02-13 13:22:00,
2013-02-13 03:27:00,65.6,56.3,30.07,East,100,4.0,4.0,72,0.00,,,0.00,VWS V14.01,2013-02-13 13:27:00,
2013-02-13 03:32:00,65.6,56.3,30.07,NE,53,3.0,4.0,72,0.00,,,0.00,VWS V14.01,2013-02-13 13:32:00,
2013-02-13 03:37:00,65.6,56.0,30.07,ENE,68,1.0,2.0,71,0.00,,,0.00,VWS V14.01,2013-02-13 13:37:00,
2013-02-13 03:42:00,65.5,56.2,30.07,East,89,3.0,3.0,72,0.00,,,0.00,VWS V14.01,2013-02-13 13:42:00,
2013-02-13 03:47:00,65.3,56.0,30.06,ENE,76,5.0,5.0,72,0.00,,,0.00,VWS V14.01,2013-02-13 13:47:00,
2013-02-13 03:52:00,65.1,55.9,30.06,ENE,57,3.0,3.0,72,0.00,,,0.00,VWS V14.01,2013-02-13 13:52:00,
2013-02-13 03:58:00,65.1,55.9,30.06,NE,38,2.0,2.0,72,0.00,,,0.00,VWS V14.01,2013-02-13 13:58:00,
2013-02-13 04:03:00,65.0,55.8,30.06,NE,50,2.0,2.0,72,0.00,,,0.00,VWS V14.01,2013-02-13 14:03:00,
2013-02-13 04:08:00,65.0,55.4,30.06,NNE,28,2.0,3.0,71,0.00,,,0.00,VWS V14.01,2013-02-13 14:08:00,
2013-02-13 04:13:00,65.1,55.5,30.06,ENE,73,5.0,5.0,71,0.00,,,0.00,VWS V14.01,2013-02-13 14:13:00,
2013-02-13 04:18:00,65.3,55.3,30.06,NE,37,4.0,5.0,70,0.00,,,0.00,VWS V14.01,2013-02-13 14:18:00,
2013-02-13 04:23:00,65.3,55.3,30.06,NE,55,3.0,3.0,70,0.00,,,0.00,VWS V14.01,2013-02-13 14:23:00,
2013-02-13 04:28:00,65.3,55.3,30.06,NE,43,4.0,4.0,70,0.00,,,0.00,VWS V14.01,2013-02-13 14:28:00,
2013-02-13 04:33:00,65.4,55.4,30.06,ENE,58,3.0,3.0,70,0.00,,,0.00,VWS V14.01,2013-02-13 14:33:00,
2013-02-13 04:38:00,65.4,55.4,30.06,ENE,63,2.0,3.0,70,0.00,,,0.00,VWS V14.01,2013-02-13 14:38:00,
2013-02-13 04:44:00,65.4,55.4,30.06,NNE,26,4.0,6.0,70,0.00,,,0.00,VWS V14.01,2013-02-13 14:44:00,
2013-02-13 04:49:00,65.4,55.0,30.06,North,7,6.0,6.0,69,0.00,,,0.00,VWS V14.01,2013-02-13 14:49:00,
2013-02-13 04:54:00,65.5,55.1,30.06,NNE,20,4.0,5.0,69,0.00,,,0.00,VWS V14.01,2013-02-13 14:54:00,
2013-02-13 04:59:00,65.6,55.2,30.06,NE,35,5.0,6.0,69,0.00,,,0.00,VWS V14.01,2013-02-13 14:59:00,
2013-02-13 05:04:00,65.7,55.3,30.06,NNE,26,5.0,6.0,69,0.00,,,0.00,VWS V14.01,2013-02-13 15:04:00,
2013-02-13 05:09:00,65.7,54.9,30.06,NE,54,7.0,9.0,68,0.00,,,0.00,VWS V14.01,2013-02-13 15:09:00,
2013-02-13 05:14:00,65.8,55.0,30.06,NNE,16,6.0,6.0,68,0.00,,,0.00,VWS V14.01,2013-02-13 15:14:00,
2013-02-13 05:19:00,65.7,54.9,30.06,NE,50,5.0,5.0,68,0.00,,,0.00,VWS V14.01,2013-02-13 15:19:00,
2013-02-13 05:25:00,65.7,54.5,30.06,NNE,22,8.0,8.0,67,0.00,,,0.00,VWS V14.01,2013-02-13 15:25:00,
2013-02-13 05:30:00,65.7,54.9,30.06,NNE,33,4.0,6.0,68,0.00,,,0.00,VWS V14.01,2013-02-13 15:30:00,
2013-02-13 05:35:00,65.7,54.9,30.06,NE,34,5.0,8.0,68,0.00,,,0.00,VWS V14.01,2013-02-13 15:35:00,
2013-02-13 05:40:00,65.8,54.5,30.06,NNE,30,3.0,3.0,67,0.00,,,0.00,VWS V14.01,2013-02-13 15:40:00,
2013-02-13 05:45:00,65.8,54.5,30.06,ENE,59,8.0,9.0,67,0.00,,,0.00,VWS V14.01,2013-02-13 15:45:00,
2013-02-13 05:50:00,65.9,55.0,30.06,NE,41,6.0,6.0,68,0.00,,,0.00,VWS V14.01,2013-02-13 15:50:00,
2013-02-13 05:55:00,65.7,55.7,30.07,ENE,61,3.0,4.0,70,0.00,,,0.00,VWS V14.01,2013-02-13 15:55:00,
2013-02-13 06:00:00,65.5,55.9,30.07,NE,53,3.0,4.0,71,0.00,,,0.00,VWS V14.01,2013-02-13 16:00:00,
2013-02-13 06:05:00,65.4,56.9,30.07,East,80,7.0,7.0,74,0.00,,,0.00,VWS V14.01,2013-02-13 16:05:00,
2013-02-13 06:10:00,65.3,56.8,30.07,East,99,8.0,8.0,74,0.00,,,0.00,VWS V14.01,2013-02-13 16:10:00,
2013-02-13 06:16:00,65.4,56.9,30.07,NE,50,5.0,5.0,74,0.00,,,0.00,VWS V14.01,2013-02-13 16:16:00,
2013-02-13 06:21:00,65.4,56.9,30.07,ENE,60,6.0,6.0,74,0.00,,,0.00,VWS V14.01,2013-02-13 16:21:00,
2013-02-13 06:26:00,65.5,56.6,30.07,NE,42,6.0,11.0,73,0.00,,,0.00,VWS V14.01,2013-02-13 16:26:00,
2013-02-13 06:31:00,65.6,56.7,30.07,East,93,6.0,8.0,73,0.00,,,0.00,VWS V14.01,2013-02-13 16:31:00,
2013-02-13 06:36:00,65.4,56.5,30.07,East,87,2.0,3.0,73,0.00,,,0.00,VWS V14.01,2013-02-13 16:36:00,
2013-02-13 06:41:00,65.4,56.5,30.07,NE,54,4.0,5.0,73,0.00,,,0.00,VWS V14.01,2013-02-13 16:41:00,
2013-02-13 06:46:00,65.4,56.2,30.07,NE,56,6.0,6.0,72,0.00,,,0.00,VWS V14.01,2013-02-13 16:46:00,
2013-02-13 06:51:00,65.5,56.6,30.07,NNE,26,5.0,6.0,73,0.00,,,0.00,VWS V14.01,2013-02-13 16:51:00,
2013-02-13 06:56:00,65.5,56.6,30.07,North,3,5.0,7.0,73,0.00,,,0.00,VWS V14.01,2013-02-13 16:56:00,
2013-02-13 07:01:00,65.6,56.7,30.07,East,87,2.0,3.0,73,0.00,,,0.00,VWS V14.01,2013-02-13 17:01:00,
2013-02-13 07:07:00,65.6,56.7,30.07,NNE,26,5.0,8.0,73,0.00,,,0.00,VWS V14.01,2013-02-13 17:07:00,
2013-02-13 07:12:00,65.8,57.3,30.07,ENE,72,8.0,8.0,74,0.00,,,0.00,VWS V14.01,2013-02-13 17:12:00,
2013-02-13 07:17:00,66.1,57.2,30.07,East,85,5.0,8.0,73,0.00,,,0.00,VWS V14.01,2013-02-13 17:17:00,
2013-02-13 07:22:00,66.4,56.7,30.07,NE,55,4.0,5.0,71,0.00,,,0.00,VWS V14.01,2013-02-13 17:22:00,
2013-02-13 07:27:00,66.3,56.6,30.08,NE,45,9.0,10.0,71,0.00,,,0.00,VWS V14.01,2013-02-13 17:27:00,
2013-02-13 07:32:00,66.3,56.6,30.08,ENE,77,8.0,10.0,71,0.00,,,0.00,VWS V14.01,2013-02-13 17:32:00,
2013-02-13 07:37:00,66.2,56.5,30.08,ENE,57,5.0,5.0,71,0.00,,,0.00,VWS V14.01,2013-02-13 17:37:00,
2013-02-13 07:42:00,66.2,56.1,30.08,NE,48,6.0,8.0,70,0.00,,,0.00,VWS V14.01,2013-02-13 17:42:00,
2013-02-13 07:47:00,66.2,56.9,30.08,SE,128,8.0,8.0,72,0.00,,,0.00,VWS V14.01,2013-02-13 17:47:00,
2013-02-13 07:52:00,66.1,57.2,30.08,ENE,68,3.0,5.0,73,0.00,,,0.00,VWS V14.01,2013-02-13 17:52:00,
2013-02-13 07:57:00,66.2,56.9,30.08,East,94,5.0,7.0,72,0.00,,,0.00,VWS V14.01,2013-02-13 17:57:00,
2013-02-13 08:02:00,66.2,57.7,30.08,ENE,72,7.0,8.0,74,0.00,,,0.00,VWS V14.01,2013-02-13 18:02:00,
2013-02-13 08:07:00,66.3,55.8,30.09,ENE,68,7.0,7.0,69,0.00,,,0.00,VWS V14.01,2013-02-13 18:07:00,
2013-02-13 08:12:00,66.4,55.1,30.09,NE,54,8.0,11.0,67,0.00,,,0.00,VWS V14.01,2013-02-13 18:12:00,
2013-02-13 08:18:00,66.6,55.3,30.09,ENE,68,3.0,3.0,67,0.00,,,0.00,VWS V14.01,2013-02-13 18:18:00,
2013-02-13 08:23:00,66.6,54.9,30.09,ENE,71,6.0,7.0,66,0.00,,,0.00,VWS V14.01,2013-02-13 18:23:00,
2013-02-13 08:28:00,66.7,55.4,30.09,ENE,73,9.0,10.0,67,0.00,,,0.00,VWS V14.01,2013-02-13 18:28:00,
2013-02-13 08:33:00,66.7,55.8,30.10,East,87,9.0,10.0,68,0.00,,,0.00,VWS V14.01,2013-02-13 18:33:00,
2013-02-13 08:38:00,67.1,56.2,30.10,NE,55,8.0,9.0,68,0.00,,,0.00,VWS V14.01,2013-02-13 18:38:00,
2013-02-13 08:43:00,67.7,56.4,30.10,NE,56,6.0,10.0,67,0.00,,,0.00,VWS V14.01,2013-02-13 18:43:00,
2013-02-13 08:48:00,68.3,58.2,30.10,East,98,13.0,13.0,70,0.00,,,0.00,VWS V14.01,2013-02-13 18:48:00,
2013-02-13 08:53:00,67.7,58.7,30.10,East,92,6.0,6.0,73,0.00,,,0.00,VWS V14.01,2013-02-13 18:53:00,
2013-02-13 08:59:00,67.6,58.7,30.10,East,84,9.0,9.0,73,0.00,,,0.00,VWS V14.01,2013-02-13 18:59:00,
2013-02-13 09:04:00,67.9,58.9,30.10,NE,53,10.0,11.0,73,0.00,,,0.00,VWS V14.01,2013-02-13 19:04:00,
2013-02-13 09:09:00,68.8,59.8,30.10,East,90,14.0,14.0,73,0.00,,,0.00,VWS V14.01,2013-02-13 19:09:00,
2013-02-13 09:14:00,69.1,58.9,30.10,ENE,78,7.0,8.0,70,0.00,,,0.00,VWS V14.01,2013-02-13 19:14:00,
2013-02-13 09:19:00,70.0,57.7,30.10,East,81,9.0,12.0,65,0.00,,,0.00,VWS V14.01,2013-02-13 19:19:00,
2013-02-13 09:24:00,69.2,54.7,30.10,ENE,57,11.0,12.0,60,0.00,,,0.00,VWS V14.01,2013-02-13 19:24:00,
2013-02-13 09:29:00,68.3,58.5,30.10,East,96,9.0,10.0,71,0.00,,,0.00,VWS V14.01,2013-02-13 19:29:00,
2013-02-13 09:34:00,69.2,59.8,30.10,ESE,104,11.0,11.0,72,0.00,,,0.00,VWS V14.01,2013-02-13 19:34:00,
2013-02-13 09:39:00,68.9,59.9,30.10,ESE,104,10.0,10.0,73,0.00,,,0.00,VWS V14.01,2013-02-13 19:39:00,
2013-02-13 09:45:00,68.1,59.5,30.10,East,89,7.0,12.0,74,0.00,,,0.00,VWS V14.01,2013-02-13 19:45:00,
2013-02-13 09:50:00,67.6,59.0,30.10,East,101,14.0,14.0,74,0.00,,,0.00,VWS V14.01,2013-02-13 19:50:00,
2013-02-13 09:55:00,67.2,59.0,30.10,East,96,12.0,12.0,75,0.00,,,0.00,VWS V14.01,2013-02-13 19:55:00,
2013-02-13 10:00:00,67.1,58.9,30.11,ENE,71,9.0,14.0,75,0.00,,,0.00,VWS V14.01,2013-02-13 20:00:00,
2013-02-13 10:05:00,67.1,59.3,30.11,ESE,106,10.0,11.0,76,0.00,,,0.00,VWS V14.01,2013-02-13 20:05:00,
2013-02-13 10:10:00,67.0,59.2,30.11,ESE,111,15.0,15.0,76,0.00,,,0.00,VWS V14.01,2013-02-13 20:10:00,
2013-02-13 10:15:00,67.0,58.5,30.11,East,89,10.0,13.0,74,0.00,,,0.00,VWS V14.01,2013-02-13 20:15:00,
2013-02-13 10:20:00,66.9,58.3,30.11,East,90,13.0,15.0,74,0.00,,,0.00,VWS V14.01,2013-02-13 20:20:00,
2013-02-13 10:25:00,66.9,58.3,30.11,ENE,71,10.0,10.0,74,0.00,,,0.00,VWS V14.01,2013-02-13 20:25:00,
2013-02-13 10:30:00,67.1,58.5,30.11,ENE,78,6.0,7.0,74,0.00,,,0.00,VWS V14.01,2013-02-13 20:30:00,
2013-02-13 10:36:00,67.4,58.5,30.11,East,90,13.0,16.0,73,0.00,,,0.00,VWS V14.01,2013-02-13 20:36:00,
2013-02-13 10:41:00,67.8,58.8,30.11,ESE,114,8.0,10.0,73,0.00,,,0.00,VWS V14.01,2013-02-13 20:41:00,
2013-02-13 10:46:00,68.1,58.3,30.11,East,83,10.0,10.0,71,0.00,,,0.00,VWS V14.01,2013-02-13 20:46:00,
2013-02-13 10:51:00,68.2,58.5,30.11,East,93,15.0,15.0,71,0.00,,,0.00,VWS V14.01,2013-02-13 20:51:00,
2013-02-13 10:56:00,68.2,58.8,30.11,East,90,11.0,12.0,72,0.00,,,0.00,VWS V14.01,2013-02-13 20:56:00,
2013-02-13 11:01:00,68.1,58.3,30.11,East,82,13.0,13.0,71,0.00,,,0.00,VWS V14.01,2013-02-13 21:01:00,
2013-02-13 11:06:00,68.6,58.4,30.11,ESE,109,15.0,17.0,70,0.00,,,0.00,VWS V14.01,2013-02-13 21:06:00,
2013-02-13 11:11:00,68.5,58.3,30.11,East,98,14.0,15.0,70,0.00,,,0.00,VWS V14.01,2013-02-13 21:11:00,
2013-02-13 11:16:00,68.5,57.9,30.10,East,91,10.0,14.0,69,0.00,,,0.00,VWS V14.01,2013-02-13 21:16:00,
2013-02-13 11:22:00,68.7,58.5,30.10,ESE,118,11.0,14.0,70,0.00,,,0.00,VWS V14.01,2013-02-13 21:22:00,
2013-02-13 11:27:00,68.7,57.7,30.10,East,84,14.0,18.0,68,0.00,,,0.00,VWS V14.01,2013-02-13 21:27:00,
2013-02-13 11:32:00,68.5,57.5,30.10,East,81,10.0,10.0,68,0.00,,,0.00,VWS V14.01,2013-02-13 21:32:00,
2013-02-13 11:37:00,68.6,57.2,30.09,East,99,8.0,11.0,67,0.00,,,0.00,VWS V14.01,2013-02-13 21:37:00,
2013-02-13 11:42:00,69.2,57.0,30.09,East,98,6.0,6.0,65,0.00,,,0.00,VWS V14.01,2013-02-13 21:42:00,
2013-02-13 11:47:00,68.7,57.3,30.09,East,85,14.0,14.0,67,0.00,,,0.00,VWS V14.01,2013-02-13 21:47:00,
2013-02-13 11:52:00,68.5,57.5,30.09,NE,56,8.0,8.0,68,0.00,,,0.00,VWS V14.01,2013-02-13 21:52:00,
2013-02-13 11:57:00,68.7,58.1,30.08,ENE,77,11.0,16.0,69,0.00,,,0.00,VWS V14.01,2013-02-13 21:57:00,
2013-02-13 12:03:00,69.0,57.2,30.08,ENE,59,8.0,10.0,66,0.00,,,0.00,VWS V14.01,2013-02-13 22:03:00,
2013-02-13 12:08:00,69.0,57.6,30.08,NE,40,9.0,9.0,67,0.00,,,0.00,VWS V14.01,2013-02-13 22:08:00,
2013-02-13 12:13:00,69.9,57.6,30.08,East,85,15.0,15.0,65,0.00,,,0.00,VWS V14.01,2013-02-13 22:13:00,
2013-02-13 12:18:00,70.4,58.1,30.08,East,100,16.0,19.0,65,0.00,,,0.00,VWS V14.01,2013-02-13 22:18:00,
2013-02-13 12:23:00,69.7,57.4,30.07,NE,55,11.0,11.0,65,0.00,,,0.00,VWS V14.01,2013-02-13 22:23:00,
2013-02-13 12:28:00,69.4,57.1,30.07,ENE,57,13.0,13.0,65,0.00,,,0.00,VWS V14.01,2013-02-13 22:28:00,
2013-02-13 12:33:00,69.2,57.4,30.07,NE,54,11.0,11.0,66,0.00,,,0.00,VWS V14.01,2013-02-13 22:33:00,
2013-02-13 12:38:00,69.3,57.5,30.07,ENE,59,15.0,15.0,66,0.00,,,0.00,VWS V14.01,2013-02-13 22:38:00,
2013-02-13 12:43:00,69.0,57.2,30.06,ENE,71,8.0,10.0,66,0.00,,,0.00,VWS V14.01,2013-02-13 22:43:00,
2013-02-13 12:48:00,68.8,57.4,30.06,ENE,66,10.0,10.0,67,0.00,,,0.00,VWS V14.01,2013-02-13 22:48:00,
2013-02-13 12:53:00,69.1,57.7,30.06,ESE,108,13.0,13.0,67,0.00,,,0.00,VWS V14.01,2013-02-13 22:53:00,
2013-02-13 12:58:00,69.1,57.3,30.06,ENE,57,11.0,11.0,66,0.00,,,0.00,VWS V14.01,2013-02-13 22:58:00,
2013-02-13 13:04:00,69.1,56.8,30.05,East,92,8.0,8.0,65,0.00,,,0.00,VWS V14.01,2013-02-13 23:04:00,
2013-02-13 13:09:00,69.3,57.9,30.05,East,86,9.0,13.0,67,0.00,,,0.00,VWS V14.01,2013-02-13 23:09:00,
2013-02-13 13:14:00,69.1,57.7,30.05,East,98,11.0,11.0,67,0.00,,,0.00,VWS V14.01,2013-02-13 23:14:00,
2013-02-13 13:19:00,69.2,59.4,30.05,ESE,103,16.0,16.0,71,0.00,,,0.00,VWS V14.01,2013-02-13 23:19:00,
2013-02-13 13:24:00,69.1,58.5,30.05,East,93,10.0,12.0,69,0.00,,,0.00,VWS V14.01,2013-02-13 23:24:00,
2013-02-13 13:29:00,68.8,57.4,30.05,ENE,66,13.0,14.0,67,0.00,,,0.00,VWS V14.01,2013-02-13 23:29:00,
2013-02-13 13:34:00,68.5,59.5,30.04,ESE,109,18.0,20.0,73,0.00,,,0.00,VWS V14.01,2013-02-13 23:34:00,
2013-02-13 13:39:00,68.2,59.6,30.04,ESE,103,20.0,20.0,74,0.00,,,0.00,VWS V14.01,2013-02-13 23:39:00,
2013-02-13 13:44:00,68.4,58.6,30.04,East,100,14.0,18.0,71,0.00,,,0.00,VWS V14.01,2013-02-13 23:44:00,
2013-02-13 13:49:00,68.8,59.8,30.03,ENE,71,8.0,8.0,73,0.00,,,0.00,VWS V14.01,2013-02-13 23:49:00,
2013-02-13 13:54:00,69.2,58.2,30.03,ESE,103,11.0,11.0,68,0.00,,,0.00,VWS V14.01,2013-02-13 23:54:00,
2013-02-13 13:59:00,68.9,57.9,30.03,ENE,66,11.0,16.0,68,0.00,,,0.00,VWS V14.01,2013-02-13 23:59:00,
2013-02-13 14:04:00,68.4,57.4,30.03,East,95,13.0,13.0,68,0.00,,,0.00,VWS V14.01,2013-02-14 00:04:00,
2013-02-13 14:09:00,68.1,57.6,30.02,ENE,57,13.0,17.0,69,0.00,,,0.00,VWS V14.01,2013-02-14 00:09:00,
2013-02-13 14:15:00,68.2,58.0,30.02,East,96,8.0,11.0,70,0.00,,,0.00,VWS V14.01,2013-02-14 00:15:00,
2013-02-13 14:20:00,68.2,58.5,30.02,ENE,65,5.0,7.0,71,0.00,,,0.00,VWS V14.01,2013-02-14 00:20:00,
2013-02-13 14:25:00,68.2,58.8,30.02,ENE,78,8.0,11.0,72,0.00,,,0.00,VWS V14.01,2013-02-14 00:25:00,
2013-02-13 14:30:00,68.1,58.3,30.02,ESE,102,7.0,8.0,71,0.00,,,0.00,VWS V14.01,2013-02-14 00:30:00,
2013-02-13 14:35:00,68.2,58.0,30.02,ENE,64,10.0,11.0,70,0.00,,,0.00,VWS V14.01,2013-02-14 00:35:00,
2013-02-13 14:40:00,68.0,58.3,30.02,ENE,73,11.0,14.0,71,0.00,,,0.00,VWS V14.01,2013-02-14 00:40:00,
2013-02-13 14:45:00,67.9,57.8,30.02,East,88,9.0,12.0,70,0.00,,,0.00,VWS V14.01,2013-02-14 00:45:00,
2013-02-13 14:50:00,67.8,56.9,30.02,ENE,62,10.0,13.0,68,0.00,,,0.00,VWS V14.01,2013-02-14 00:50:00,
2013-02-13 14:55:00,67.6,57.1,30.02,ENE,68,8.0,9.0,69,0.00,,,0.00,VWS V14.01,2013-02-14 00:55:00,
2013-02-13 15:00:00,67.6,57.5,30.01,NE,48,7.0,12.0,70,0.00,,,0.00,VWS V14.01,2013-02-14 01:00:00,
2013-02-13 15:05:00,67.7,58.0,30.01,ESE,102,6.0,9.0,71,0.00,,,0.00,VWS V14.01,2013-02-14 01:05:00,
2013-02-13 15:10:00,67.7,57.6,30.01,East,101,9.0,9.0,70,0.00,,,0.00,VWS V14.01,2013-02-14 01:10:00,
2013-02-13 15:15:00,67.8,56.9,30.01,ESE,104,10.0,11.0,68,0.00,,,0.00,VWS V14.01,2013-02-14 01:15:00,
2013-02-13 15:20:00,67.8,57.3,30.00,ENE,66,11.0,11.0,69,0.00,,,0.00,VWS V14.01,2013-02-14 01:20:00,
2013-02-13 15:25:00,67.8,58.1,30.01,East,99,10.0,10.0,71,0.00,,,0.00,VWS V14.01,2013-02-14 01:25:00,
2013-02-13 15:31:00,67.6,57.9,30.01,East,92,11.0,11.0,71,0.00,,,0.00,VWS V14.01,2013-02-14 01:31:00,
2013-02-13 15:36:00,67.6,57.9,30.00,NE,54,8.0,11.0,71,0.00,,,0.00,VWS V14.01,2013-02-14 01:36:00,
2013-02-13 15:41:00,67.7,57.6,30.00,ESE,113,14.0,15.0,70,0.00,,,0.00,VWS V14.01,2013-02-14 01:41:00,
2013-02-13 15:46:00,67.7,58.0,30.00,ENE,67,8.0,11.0,71,0.00,,,0.00,VWS V14.01,2013-02-14 01:46:00,
2013-02-13 15:51:00,67.8,57.7,30.00,NE,54,10.0,13.0,70,0.00,,,0.00,VWS V14.01,2013-02-14 01:51:00,
2013-02-13 15:56:00,67.8,58.5,30.00,ENE,60,13.0,13.0,72,0.00,,,0.00,VWS V14.01,2013-02-14 01:56:00,
2013-02-13 16:01:00,67.6,58.7,30.00,East,95,12.0,15.0,73,0.00,,,0.00,VWS V14.01,2013-02-14 02:01:00,
2013-02-13 16:06:00,67.5,57.4,30.01,ESE,109,10.0,14.0,70,0.00,,,0.00,VWS V14.01,2013-02-14 02:06:00,
2013-02-13 16:11:00,67.5,57.4,30.01,ESE,103,12.0,14.0,70,0.00,,,0.00,VWS V14.01,2013-02-14 02:11:00,
2013-02-13 16:16:00,67.6,57.9,30.01,East,92,8.0,12.0,71,0.00,,,0.00,VWS V14.01,2013-02-14 02:16:00,
2013-02-13 16:21:00,67.4,57.7,30.01,East,97,8.0,11.0,71,0.00,,,0.00,VWS V14.01,2013-02-14 02:21:00,
2013-02-13 16:26:00,67.2,58.6,30.00,East,82,10.0,12.0,74,0.00,,,0.00,VWS V14.01,2013-02-14 02:26:00,
2013-02-13 16:31:00,67.0,58.8,30.00,ESE,102,8.0,8.0,75,0.00,,,0.00,VWS V14.01,2013-02-14 02:31:00,
2013-02-13 16:37:00,66.8,59.4,30.00,East,80,9.0,14.0,77,0.00,,,0.00,VWS V14.01,2013-02-14 02:37:00,
2013-02-13 16:42:00,66.8,59.4,30.00,ENE,57,7.0,8.0,77,0.00,,,0.00,VWS V14.01,2013-02-14 02:42:00,
2013-02-13 16:47:00,66.6,58.8,30.00,ENE,72,4.0,5.0,76,0.00,,,0.00,VWS V14.01,2013-02-14 02:47:00,
2013-02-13 16:52:00,66.7,58.9,30.00,ENE,71,5.0,7.0,76,0.00,,,0.00,VWS V14.01,2013-02-14 02:52:00,
2013-02-13 16:57:00,66.6,58.1,30.00,East,94,8.0,8.0,74,0.00,,,0.00,VWS V14.01,2013-02-14 02:57:00,
2013-02-13 17:02:00,66.4,57.9,30.01,East,93,10.0,11.0,74,0.00,,,0.00,VWS V14.01,2013-02-14 03:02:00,
2013-02-13 17:07:00,66.3,57.4,30.01,NE,52,11.0,11.0,73,0.00,,,0.00,VWS V14.01,2013-02-14 03:07:00,
2013-02-13 17:12:00,66.2,57.3,30.01,NE,39,7.0,8.0,73,0.00,,,0.00,VWS V14.01,2013-02-14 03:12:00,
2013-02-13 17:17:00,66.2,57.3,30.01,ENE,59,9.0,9.0,73,0.00,,,0.00,VWS V14.01,2013-02-14 03:17:00,
2013-02-13 17:22:00,66.2,56.9,30.02,NE,45,6.0,6.0,72,0.00,,,0.00,VWS V14.01,2013-02-14 03:22:00,
2013-02-13 17:27:00,66.3,57.0,30.02,ENE,62,8.0,9.0,72,0.00,,,0.00,VWS V14.01,2013-02-14 03:27:00,
2013-02-13 17:32:00,66.4,56.7,30.02,NE,38,10.0,10.0,71,0.00,,,0.00,VWS V14.01,2013-02-14 03:32:00,
2013-02-13 17:37:00,66.5,56.8,30.02,NE,43,6.0,6.0,71,0.00,,,0.00,VWS V14.01,2013-02-14 03:37:00,
2013-02-13 17:42:00,66.6,56.9,30.02,ENE,77,9.0,9.0,71,0.00,,,0.00,VWS V14.01,2013-02-14 03:42:00,
2013-02-13 17:47:00,66.6,56.9,30.02,East,99,10.0,11.0,71,0.00,,,0.00,VWS V14.01,2013-02-14 03:47:00,
2013-02-13 17:53:00,66.6,56.9,30.03,NE,54,9.0,13.0,71,0.00,,,0.00,VWS V14.01,2013-02-14 03:53:00,
2013-02-13 17:59:00,66.6,57.3,30.02,ENE,59,7.0,7.0,72,0.00,,,0.00,VWS V14.01,2013-02-14 03:59:00,
2013-02-13 18:04:00,66.6,57.3,30.02,ENE,57,8.0,8.0,72,0.00,,,0.00,VWS V14.01,2013-02-14 04:04:00,
2013-02-13 18:09:00,66.5,56.8,30.02,ENE,64,7.0,10.0,71,0.00,,,0.00,VWS V14.01,2013-02-14 04:09:00,
2013-02-13 18:14:00,66.6,56.5,30.03,ENE,68,11.0,11.0,70,0.00,,,0.00,VWS V14.01,2013-02-14 04:14:00,
2013-02-13 18:19:00,66.6,56.5,30.03,ENE,57,9.0,10.0,70,0.00,,,0.00,VWS V14.01,2013-02-14 04:19:00,
2013-02-13 18:25:00,66.6,56.1,30.03,ENE,69,8.0,8.0,69,0.00,,,0.00,VWS V14.01,2013-02-14 04:25:00,
2013-02-13 18:30:00,66.6,56.5,30.03,NE,56,6.0,6.0,70,0.00,,,0.00,VWS V14.01,2013-02-14 04:30:00,
2013-02-13 18:35:00,66.6,56.5,30.03,East,98,7.0,10.0,70,0.00,,,0.00,VWS V14.01,2013-02-14 04:35:00,
2013-02-13 18:40:00,66.6,56.9,30.03,ENE,71,7.0,7.0,71,0.00,,,0.00,VWS V14.01,2013-02-14 04:40:00,
2013-02-13 18:45:00,66.5,57.2,30.03,NE,42,5.0,10.0,72,0.00,,,0.00,VWS V14.01,2013-02-14 04:45:00,
2013-02-13 18:50:00,66.4,57.1,30.03,NE,54,5.0,5.0,72,0.00,,,0.00,VWS V14.01,2013-02-14 04:50:00,
2013-02-13 18:56:00,66.5,56.8,30.03,ENE,74,3.0,4.0,71,0.00,,,0.00,VWS V14.01,2013-02-14 04:56:00,
2013-02-13 19:00:00,66.5,57.2,30.03,NE,48,7.0,7.0,72,0.00,,,0.00,VWS V14.01,2013-02-14 05:00:00,
2013-02-13 19:06:00,66.5,57.2,30.03,North,359,4.0,5.0,72,0.00,,,0.00,VWS V14.01,2013-02-14 05:06:00,
2013-02-13 19:11:00,66.5,57.2,30.03,NNE,31,8.0,8.0,72,0.00,,,0.00,VWS V14.01,2013-02-14 05:11:00,
2013-02-13 19:16:00,66.4,56.7,30.04,NNE,23,10.0,10.0,71,0.00,,,0.00,VWS V14.01,2013-02-14 05:16:00,
2013-02-13 19:21:00,66.4,57.1,30.04,NNE,26,8.0,9.0,72,0.00,,,0.00,VWS V14.01,2013-02-14 05:21:00,
2013-02-13 19:26:00,66.4,57.1,30.04,NE,41,3.0,3.0,72,0.00,,,0.00,VWS V14.01,2013-02-14 05:26:00,
2013-02-13 19:31:00,66.4,57.1,30.04,North,7,7.0,7.0,72,0.00,,,0.00,VWS V14.01,2013-02-14 05:31:00,
2013-02-13 19:36:00,66.4,57.1,30.04,NE,42,5.0,6.0,72,0.00,,,0.00,VWS V14.01,2013-02-14 05:36:00,
2013-02-13 19:41:00,66.4,57.1,30.05,NE,55,7.0,7.0,72,0.00,,,0.00,VWS V14.01,2013-02-14 05:41:00,
2013-02-13 19:46:00,66.4,57.1,30.05,NE,38,7.0,7.0,72,0.00,,,0.00,VWS V14.01,2013-02-14 05:46:00,
2013-02-13 19:51:00,66.3,57.0,30.05,NE,47,6.0,6.0,72,0.00,,,0.00,VWS V14.01,2013-02-14 05:51:00,
2013-02-13 19:56:00,66.2,56.9,30.05,NNE,20,5.0,9.0,72,0.00,,,0.00,VWS V14.01,2013-02-14 05:56:00,
2013-02-13 20:01:00,66.1,57.2,30.06,NNE,15,9.0,9.0,73,0.00,,,0.00,VWS V14.01,2013-02-14 06:01:00,
2013-02-13 20:06:00,66.1,57.2,30.06,NNE,18,7.0,7.0,73,0.00,,,0.00,VWS V14.01,2013-02-14 06:06:00,
2013-02-13 20:11:00,66.0,57.1,30.07,NNE,24,5.0,5.0,73,0.00,,,0.00,VWS V14.01,2013-02-14 06:11:00,
2013-02-13 20:17:00,65.8,56.9,30.07,NNE,22,6.0,6.0,73,0.00,,,0.00,VWS V14.01,2013-02-14 06:17:00,
2013-02-13 20:22:00,65.6,57.1,30.07,NNE,28,3.0,3.0,74,0.00,,,0.00,VWS V14.01,2013-02-14 06:22:00,
2013-02-13 20:27:00,65.5,57.0,30.07,North,8,6.0,7.0,74,0.00,,,0.00,VWS V14.01,2013-02-14 06:27:00,
2013-02-13 20:32:00,65.7,56.8,30.07,NNE,20,4.0,5.0,73,0.00,,,0.00,VWS V14.01,2013-02-14 06:32:00,
2013-02-13 20:37:00,65.9,57.0,30.07,NNE,33,6.0,6.0,73,0.00,,,0.00,VWS V14.01,2013-02-14 06:37:00,
2013-02-13 20:42:00,66.1,57.2,30.07,NE,35,7.0,9.0,73,0.00,,,0.00,VWS V14.01,2013-02-14 06:42:00,
2013-02-13 20:47:00,66.2,56.9,30.07,NE,48,5.0,7.0,72,0.00,,,0.00,VWS V14.01,2013-02-14 06:47:00,
2013-02-13 20:52:00,66.1,57.6,30.07,NNE,28,4.0,6.0,74,0.00,,,0.00,VWS V14.01,2013-02-14 06:52:00,
2013-02-13 20:58:00,65.8,57.7,30.07,NE,55,4.0,5.0,75,0.00,,,0.00,VWS V14.01,2013-02-14 06:58:00,
2013-02-13 21:03:00,65.5,58.1,30.07,NNE,18,4.0,4.0,77,0.00,,,0.00,VWS V14.01,2013-02-14 07:03:00,
2013-02-13 21:08:00,65.3,57.9,30.08,NNE,16,6.0,7.0,77,0.00,,,0.00,VWS V14.01,2013-02-14 07:08:00,
2013-02-13 21:13:00,65.2,57.8,30.07,North,8,5.0,5.0,77,0.00,,,0.00,VWS V14.01,2013-02-14 07:13:00,
2013-02-13 21:18:00,65.3,57.5,30.07,NNE,23,3.0,6.0,76,0.00,,,0.00,VWS V14.01,2013-02-14 07:18:00,
2013-02-13 21:23:00,65.5,57.4,30.08,NNE,26,5.0,5.0,75,0.00,,,0.00,VWS V14.01,2013-02-14 07:23:00,
2013-02-13 21:28:00,65.7,57.6,30.08,NNW,344,6.0,6.0,75,0.00,,,0.00,VWS V14.01,2013-02-14 07:28:00,
2013-02-13 21:33:00,65.9,57.8,30.08,North,355,11.0,11.0,75,0.00,,,0.00,VWS V14.01,2013-02-14 07:33:00,
2013-02-13 21:38:00,66.0,57.9,30.08,North,9,4.0,6.0,75,0.00,,,0.00,VWS V14.01,2013-02-14 07:38:00,
2013-02-13 21:44:00,65.9,57.8,30.08,NNE,20,6.0,7.0,75,0.00,,,0.00,VWS V14.01,2013-02-14 07:44:00,
2013-02-13 21:49:00,65.8,58.0,30.08,ESE,102,4.0,5.0,76,0.00,,,0.00,VWS V14.01,2013-02-14 07:49:00,
2013-02-13 21:54:00,65.6,57.8,30.08,NE,52,2.0,2.0,76,0.00,,,0.00,VWS V14.01,2013-02-14 07:54:00,
2013-02-13 21:59:00,65.5,57.7,30.08,NE,36,3.0,3.0,76,0.00,,,0.00,VWS V14.01,2013-02-14 07:59:00,
2013-02-13 22:04:00,65.6,57.5,30.08,NNE,28,3.0,5.0,75,0.00,,,0.00,VWS V14.01,2013-02-14 08:04:00,
2013-02-13 22:09:00,65.7,57.6,30.08,NE,44,6.0,7.0,75,0.00,,,0.00,VWS V14.01,2013-02-14 08:09:00,
2013-02-13 22:14:00,65.7,57.6,30.08,NNE,19,6.0,6.0,75,0.00,,,0.00,VWS V14.01,2013-02-14 08:14:00,
2013-02-13 22:19:00,65.7,57.6,30.08,NNE,22,4.0,7.0,75,0.00,,,0.00,VWS V14.01,2013-02-14 08:19:00,
2013-02-13 22:24:00,65.8,57.7,30.08,North,11,6.0,6.0,75,0.00,,,0.00,VWS V14.01,2013-02-14 08:24:00,
2013-02-13 22:29:00,65.9,57.8,30.08,NNE,16,2.0,2.0,75,0.00,,,0.00,VWS V14.01,2013-02-14 08:29:00,
2013-02-13 22:34:00,65.9,57.8,30.08,North,10,7.0,7.0,75,0.00,,,0.00,VWS V14.01,2013-02-14 08:34:00,
2013-02-13 22:39:00,66.0,57.9,30.08,NW,306,6.0,6.0,75,0.00,,,0.00,VWS V14.01,2013-02-14 08:39:00,
2013-02-13 22:44:00,65.9,57.8,30.08,North,357,6.0,6.0,75,0.00,,,0.00,VWS V14.01,2013-02-14 08:44:00,
2013-02-13 22:50:00,65.9,58.1,30.08,South,185,2.0,2.0,76,0.00,,,0.00,VWS V14.01,2013-02-14 08:50:00,
2013-02-13 22:55:00,65.7,57.9,30.08,NNE,19,5.0,6.0,76,0.00,,,0.00,VWS V14.01,2013-02-14 08:55:00,
2013-02-13 23:00:00,65.7,57.9,30.08,NE,46,2.0,2.0,76,0.00,,,0.00,VWS V14.01,2013-02-14 09:00:00,
2013-02-13 23:05:00,65.5,58.1,30.08,North,9,4.0,5.0,77,0.00,,,0.00,VWS V14.01,2013-02-14 09:05:00,
2013-02-13 23:10:00,65.4,58.0,30.08,NNE,23,3.0,4.0,77,0.00,,,0.00,VWS V14.01,2013-02-14 09:10:00,
2013-02-13 23:15:00,65.2,57.8,30.08,ENE,69,2.0,4.0,77,0.00,,,0.00,VWS V14.01,2013-02-14 09:15:00,
2013-02-13 23:20:00,65.0,57.6,30.08,North,359,4.0,4.0,77,0.00,,,0.00,VWS V14.01,2013-02-14 09:20:00,
2013-02-13 23:25:00,65.0,57.6,30.08,North,4,5.0,5.0,77,0.00,,,0.00,VWS V14.01,2013-02-14 09:25:00,
2013-02-13 23:30:00,65.1,57.7,30.08,NNE,27,4.0,5.0,77,0.00,,,0.00,VWS V14.01,2013-02-14 09:30:00,
2013-02-13 23:36:00,65.2,57.8,30.08,NNE,27,4.0,6.0,77,0.00,,,0.00,VWS V14.01,2013-02-14 09:36:00,
2013-02-13 23:41:00,65.3,57.5,30.07,NNE,33,2.0,2.0,76,0.00,,,0.00,VWS V14.01,2013-02-14 09:41:00,
2013-02-13 23:46:00,65.4,57.7,30.07,North,360,3.0,4.0,76,0.00,,,0.00,VWS V14.01,2013-02-14 09:46:00,
2013-02-13 23:51:00,65.2,57.5,30.07,NNE,19,8.0,9.0,76,0.00,,,0.00,VWS V14.01,2013-02-14 09:51:00,
2013-02-13 23:56:00,65.1,57.7,30.07,NNE,26,4.0,5.0,77,0.00,,,0.00,VWS V14.01,2013-02-14 09:56:00,